TISX/STX METAR and TAF weather

Enter ICAO airport designator
Station Type Date Time Source
TISX METAR 2020/09/22 23:53 UTC NOAA

TISX 222353Z 36004KT 10SM SCT020 28/26 A2991 RMK AO2 SLP125 60003 T02780261 10300 20256 53009


Station Type Date Time Source
TISX Decoded METAR 2020/09/22 23:53 UTC NOAA

Christiansted, Henry E. Rohlsen Airport, Virgin Islands (TISX) 17-42N 064-48W 17M
Sep 22, 2020 - 07:53 PM EDT / 2020.09.22 2353 UTC
Wind: from the N (360 degrees) at 5 MPH (4 KT):0
Visibility: 10 mile(s):0
Sky conditions: partly cloudy
Temperature: 82.0 F (27.8 C)
Dew Point: 79.0 F (26.1 C)
Relative Humidity: 90%
Pressure (altimeter): 29.91 in. Hg (1012 hPa)
Pressure tendency: 0.03 inches (0.9 hPa) higher than three hours ago
ob: TISX 222353Z 36004KT 10SM SCT020 28/26 A2991 RMK AO2 SLP125 60003 T02780261 10300 20256 53009
cycle: 0

Station Type Date Time Source
TISX TAF 2020/09/22 18:46 UTC NOAA

TAF TISX 221739Z 2218/2318 18007KT P6SM VCSH FEW025 SCT050
TEMPO 2218/2219 VRB10KT 3SM TSRA BKN025CB
FM222300 VRB04KT P6SM FEW025 SCT050
FM231200 16008KT P6SM FEW025

Example: see airport list